Time;durP1;ratioP1;P1;durP2;ratioP2;P2;SDS_P1;SDS_P2;PMS_P1;PMS_P2;Temp;Humidity;BMP_temperature;BMP_pressure;BME280_temperature;BME280_humidity;BME280_pressure;Samples;Min_cycle;Max_cycle;Signal;HPM_P1;HPM_P2
2022/09/15 00:02:48;;;;;;;4.35;1.50;;;;;;;;;;10518156;28;20070;-76
2022/09/15 00:07:50;;;;;;;1.40;1.00;;;;;;;;;;10548874;28;20044;-75
2022/09/15 00:12:55;;;;;;;4.23;1.10;;;;;;;;;;10542092;28;20059;-75
2022/09/15 00:17:58;;;;;;;4.68;1.60;;;;;;;;;;10515885;28;20043;-75
2022/09/15 00:23:00;;;;;;;2.37;1.33;;;;;;;;;;10543534;28;20398;-75
2022/09/15 00:28:04;;;;;;;2.17;1.30;;;;;;;;;;10502353;28;20028;-75
2022/09/15 00:33:07;;;;;;;2.25;1.10;;;;;;;;;;10522957;28;20042;-76
2022/09/15 00:38:11;;;;;;;4.03;1.47;;;;;;;;;;10506192;28;20036;-76
2022/09/15 00:43:15;;;;;;;1.83;1.20;;;;;;;;;;10522638;28;20049;-75
2022/09/15 00:48:19;;;;;;;2.22;1.02;;;;;;;;;;10516730;28;20032;-75
2022/09/15 00:53:23;;;;;;;2.30;1.10;;;;;;;;;;10517275;28;20090;-76
2022/09/15 00:58:30;;;;;;;1.73;1.38;;;;;;;;;;10528292;28;20434;-76
2022/09/15 01:03:34;;;;;;;1.88;1.02;;;;;;;;;;10532791;28;20218;-76
2022/09/15 01:08:40;;;;;;;4.10;1.40;;;;;;;;;;10536542;28;20459;-75
2022/09/15 01:13:44;;;;;;;2.00;1.05;;;;;;;;;;10516717;28;20489;-74
2022/09/15 01:18:52;;;;;;;2.95;1.50;;;;;;;;;;10544632;28;20039;-76
2022/09/15 01:24:21;;;;;;;1.85;1.52;;;;;;;;;;10531527;28;20477;-76
2022/09/15 01:29:34;;;;;;;2.65;1.15;;;;;;;;;;10497057;28;20091;-75
2022/09/15 01:34:41;;;;;;;2.30;1.15;;;;;;;;;;10539988;28;20050;-75
2022/09/15 01:39:44;;;;;;;1.88;0.95;;;;;;;;;;10512446;28;20052;-75
2022/09/15 01:44:51;;;;;;;3.22;1.33;;;;;;;;;;10515369;28;20050;-76
2022/09/15 01:49:56;;;;;;;1.63;0.90;;;;;;;;;;10507651;28;21247;-75
2022/09/15 01:55:02;;;;;;;3.10;1.40;;;;;;;;;;10505133;28;20115;-75
2022/09/15 02:00:08;;;;;;;2.15;1.10;;;;;;;;;;10529412;28;20126;-75
2022/09/15 02:05:15;;;;;;;2.53;1.10;;;;;;;;;;10500863;28;20093;-75
2022/09/15 02:10:22;;;;;;;5.35;1.40;;;;;;;;;;10529696;28;20089;-75
2022/09/15 02:15:28;;;;;;;1.52;1.15;;;;;;;;;;10523519;28;20075;-76
2022/09/15 02:20:34;;;;;;;1.73;1.20;;;;;;;;;;10529068;28;20039;-74
2022/09/15 02:25:44;;;;;;;2.67;1.05;;;;;;;;;;10522918;28;20539;-75
2022/09/15 02:30:51;;;;;;;2.35;1.10;;;;;;;;;;10526983;28;20097;-74
2022/09/15 02:35:54;;;;;;;1.25;0.90;;;;;;;;;;10509029;28;20089;-73
2022/09/15 02:40:57;;;;;;;;;;;;;;;;;;10522525;28;20063;-74
2022/09/15 02:46:02;;;;;;;3.30;1.30;;;;;;;;;;10524612;28;20073;-74
2022/09/15 02:51:06;;;;;;;2.25;1.20;;;;;;;;;;10518449;28;20039;-74
2022/09/15 02:56:10;;;;;;;2.15;1.00;;;;;;;;;;10492673;28;20040;-76
2022/09/15 03:01:15;;;;;;;1.50;0.77;;;;;;;;;;10524364;28;20456;-75
2022/09/15 03:06:20;;;;;;;1.13;0.80;;;;;;;;;;10505265;28;20038;-74
2022/09/15 03:11:25;;;;;;;1.80;0.95;;;;;;;;;;10533907;28;20497;-75
2022/09/15 03:16:31;;;;;;;2.53;1.35;;;;;;;;;;10518967;28;20063;-74
2022/09/15 03:21:36;;;;;;;3.90;1.30;;;;;;;;;;10513553;28;20497;-75
2022/09/15 03:26:39;;;;;;;2.08;0.95;;;;;;;;;;10508913;28;20048;-75
2022/09/15 03:31:48;;;;;;;1.48;0.75;;;;;;;;;;10504516;28;20036;-75
2022/09/15 03:36:52;;;;;;;3.42;1.10;;;;;;;;;;10529666;28;20043;-75
2022/09/15 03:41:56;;;;;;;3.17;1.15;;;;;;;;;;10529052;28;20465;-74
2022/09/15 03:47:01;;;;;;;3.05;0.93;;;;;;;;;;10518065;28;20044;-75
2022/09/15 03:52:04;;;;;;;3.80;1.20;;;;;;;;;;10526763;28;20044;-75
2022/09/15 03:57:08;;;;;;;1.80;1.02;;;;;;;;;;10525681;28;20036;-75
2022/09/15 04:02:13;;;;;;;5.03;1.15;;;;;;;;;;10530062;28;20056;-74
2022/09/15 04:07:16;;;;;;;2.45;1.20;;;;;;;;;;10512201;28;20038;-74
2022/09/15 04:12:19;;;;;;;2.33;1.10;;;;;;;;;;10517510;28;20087;-75
2022/09/15 04:17:24;;;;;;;2.53;1.20;;;;;;;;;;10515091;28;20044;-74
2022/09/15 04:22:30;;;;;;;2.10;1.15;;;;;;;;;;10513603;28;20379;-75
2022/09/15 04:27:35;;;;;;;0.93;0.73;;;;;;;;;;10539091;28;20032;-75
2022/09/15 04:32:39;;;;;;;1.27;0.80;;;;;;;;;;10519498;28;20045;-74
2022/09/15 04:37:42;;;;;;;1.52;0.77;;;;;;;;;;10521808;28;20075;-75
2022/09/15 04:42:46;;;;;;;2.38;0.95;;;;;;;;;;10513131;28;20040;-75
2022/09/15 04:47:52;;;;;;;2.00;0.90;;;;;;;;;;10484463;28;20074;-76
2022/09/15 04:52:55;;;;;;;2.97;0.90;;;;;;;;;;10517978;28;20123;-76
2022/09/15 04:57:58;;;;;;;1.35;0.63;;;;;;;;;;10536812;28;20620;-75
2022/09/15 05:03:03;;;;;;;2.05;0.70;;;;;;;;;;10520576;28;20044;-75
2022/09/15 05:08:08;;;;;;;1.00;0.63;;;;;;;;;;10514731;28;20131;-75
2022/09/15 05:13:11;;;;;;;2.17;0.40;;;;;;;;;;10509374;28;20040;-75
2022/09/15 05:18:16;;;;;;;3.38;0.80;;;;;;;;;;10515698;28;20127;-74
2022/09/15 05:23:19;;;;;;;2.45;0.73;;;;;;;;;;10497674;28;20108;-75
2022/09/15 05:28:23;;;;;;;1.00;0.68;;;;;;;;;;10509413;28;20036;-75
2022/09/15 05:33:28;;;;;;;0.75;0.70;;;;;;;;;;10522277;28;20128;-76
2022/09/15 05:38:32;;;;;;;1.08;0.70;;;;;;;;;;10502566;28;20542;-75
2022/09/15 05:43:34;;;;;;;;;;;;;;;;;;10501195;28;20044;-75
2022/09/15 05:48:39;;;;;;;2.50;1.15;;;;;;;;;;10525703;28;20526;-75
2022/09/15 05:53:42;;;;;;;1.48;0.70;;;;;;;;;;10503647;28;20043;-75
2022/09/15 05:58:46;;;;;;;1.25;0.82;;;;;;;;;;10519416;28;20055;-75
2022/09/15 06:03:51;;;;;;;2.05;0.95;;;;;;;;;;10512501;28;20428;-75
2022/09/15 06:08:56;;;;;;;1.65;0.90;;;;;;;;;;10526065;28;20511;-76
2022/09/15 06:14:02;;;;;;;2.60;0.98;;;;;;;;;;10525960;28;20055;-75
2022/09/15 06:19:07;;;;;;;0.63;0.50;;;;;;;;;;10515135;28;20028;-75
2022/09/15 06:24:11;;;;;;;0.80;0.70;;;;;;;;;;10503342;28;20032;-74
2022/09/15 06:29:14;;;;;;;2.28;0.77;;;;;;;;;;10519888;28;20032;-74
2022/09/15 06:34:18;;;;;;;1.13;0.70;;;;;;;;;;10514218;28;20048;-74
2022/09/15 06:39:21;;;;;;;1.23;0.57;;;;;;;;;;10503495;28;20055;-76
2022/09/15 06:44:25;;;;;;;1.83;0.50;;;;;;;;;;10488899;28;20059;-74
2022/09/15 06:49:30;;;;;;;1.33;0.77;;;;;;;;;;10504713;28;20047;-77
2022/09/15 06:54:33;;;;;;;3.13;0.75;;;;;;;;;;10518836;28;20036;-77
2022/09/15 06:59:36;;;;;;;1.88;0.73;;;;;;;;;;10520857;28;20036;-74
2022/09/15 07:04:40;;;;;;;0.80;0.80;;;;;;;;;;10514827;28;20289;-73
2022/09/15 07:09:42;;;;;;;1.42;0.88;;;;;;;;;;10501474;28;20046;-75
2022/09/15 07:14:50;;;;;;;1.52;0.70;;;;;;;;;;10526842;28;20086;-76
2022/09/15 07:19:55;;;;;;;2.42;0.93;;;;;;;;;;10510929;28;20042;-76
2022/09/15 07:24:58;;;;;;;0.73;0.40;;;;;;;;;;10534390;28;20584;-77
2022/09/15 07:30:01;;;;;;;1.70;1.00;;;;;;;;;;10529298;28;20352;-75
2022/09/15 07:35:06;;;;;;;2.20;0.57;;;;;;;;;;10528817;28;20133;-76
2022/09/15 07:40:09;;;;;;;6.57;2.35;;;;;;;;;;10516962;28;20032;-75
2022/09/15 07:45:11;;;;;;;;;;;;;;;;;;10520703;28;20055;-75
2022/09/15 07:50:15;;;;;;;1.00;0.80;;;;;;;;;;10533716;28;19932;-76
2022/09/15 07:55:18;;;;;;;1.95;0.77;;;;;;;;;;10513046;28;20049;-77
2022/09/15 08:00:21;;;;;;;2.20;1.30;;;;;;;;;;10511108;28;20036;-76
2022/09/15 08:05:27;;;;;;;2.20;1.00;;;;;;;;;;10536507;28;20035;-77
2022/09/15 08:10:29;;;;;;;1.20;0.73;;;;;;;;;;10513154;28;20124;-76
2022/09/15 08:15:35;;;;;;;1.20;1.00;;;;;;;;;;10518073;28;20032;-76
2022/09/15 08:20:39;;;;;;;1.67;0.75;;;;;;;;;;10521275;28;20040;-77
2022/09/15 08:25:42;;;;;;;2.85;0.98;;;;;;;;;;10506635;28;20036;-76
2022/09/15 08:30:45;;;;;;;1.25;0.95;;;;;;;;;;10512479;28;20032;-76
2022/09/15 08:35:50;;;;;;;1.65;1.20;;;;;;;;;;10529078;28;20131;-76
2022/09/15 08:40:57;;;;;;;2.42;1.15;;;;;;;;;;10513731;28;20505;-77
2022/09/15 08:46:03;;;;;;;1.90;0.93;;;;;;;;;;10509616;28;20056;-76
2022/09/15 08:51:10;;;;;;;1.55;0.90;;;;;;;;;;10513874;28;20397;-77
2022/09/15 08:56:14;;;;;;;4.15;1.50;;;;;;;;;;10500211;28;20036;-77
2022/09/15 09:01:23;;;;;;;3.10;1.13;;;;;;;;;;10508602;28;20430;-78
2022/09/15 09:06:30;;;;;;;2.50;1.15;;;;;;;;;;10512348;28;20102;-76
2022/09/15 09:11:39;;;;;;;1.98;0.90;;;;;;;;;;10511464;28;20058;-77
2022/09/15 09:16:47;;;;;;;2.08;0.80;;;;;;;;;;10511830;28;20040;-77
2022/09/15 09:21:53;;;;;;;3.00;1.10;;;;;;;;;;10514086;28;20049;-77
2022/09/15 09:26:56;;;;;;;1.02;0.80;;;;;;;;;;10499395;28;20067;-78
2022/09/15 09:31:59;;;;;;;1.35;1.15;;;;;;;;;;10510066;28;20040;-77
2022/09/15 09:37:09;;;;;;;2.25;0.93;;;;;;;;;;10522063;28;20052;-75
2022/09/15 09:42:13;;;;;;;1.23;0.75;;;;;;;;;;10531896;28;20047;-75
2022/09/15 09:47:16;;;;;;;1.90;1.17;;;;;;;;;;10526330;28;20036;-75
2022/09/15 09:52:32;;;;;;;1.67;1.00;;;;;;;;;;10528648;28;20059;-75
2022/09/15 09:57:36;;;;;;;1.70;1.42;;;;;;;;;;10517069;28;20495;-75
2022/09/15 10:02:46;;;;;;;2.20;1.45;;;;;;;;;;10513678;28;20044;-76
2022/09/15 10:07:50;;;;;;;5.15;1.67;;;;;;;;;;10513225;28;20154;-75
2022/09/15 10:12:55;;;;;;;3.97;1.20;;;;;;;;;;10516901;28;20270;-75
2022/09/15 10:17:58;;;;;;;3.25;1.00;;;;;;;;;;10524703;28;20154;-75
2022/09/15 10:23:04;;;;;;;1.70;0.80;;;;;;;;;;10523397;28;20138;-75
2022/09/15 10:28:13;;;;;;;2.00;1.00;;;;;;;;;;10484920;28;20048;-75
2022/09/15 10:33:19;;;;;;;1.50;1.17;;;;;;;;;;10511023;28;20059;-75
2022/09/15 10:38:30;;;;;;;1.67;0.80;;;;;;;;;;10517799;28;20046;-75
2022/09/15 10:43:37;;;;;;;1.17;0.60;;;;;;;;;;10526410;28;20134;-77
2022/09/15 10:48:45;;;;;;;2.05;0.65;;;;;;;;;;10516373;28;20465;-75
2022/09/15 10:53:56;;;;;;;1.48;0.77;;;;;;;;;;10523123;28;20048;-77
2022/09/15 10:59:14;;;;;;;1.85;0.80;;;;;;;;;;10512938;28;20143;-76
2022/09/15 11:04:31;;;;;;;0.60;0.60;;;;;;;;;;10510343;28;20405;-76
2022/09/15 11:09:38;;;;;;;1.52;0.95;;;;;;;;;;10512540;28;20055;-76
2022/09/15 11:14:47;;;;;;;3.33;1.20;;;;;;;;;;10508727;28;20048;-76
2022/09/15 11:20:01;;;;;;;1.45;1.00;;;;;;;;;;10509799;28;20040;-75
2022/09/15 11:25:13;;;;;;;1.25;0.90;;;;;;;;;;10511402;28;20563;-75
2022/09/15 11:30:18;;;;;;;2.30;1.10;;;;;;;;;;10499569;28;20066;-76
2022/09/15 11:35:28;;;;;;;2.33;0.88;;;;;;;;;;10516125;28;20147;-76
2022/09/15 11:40:34;;;;;;;1.85;1.60;;;;;;;;;;10525580;28;20040;-76
2022/09/15 11:45:40;;;;;;;2.35;1.13;;;;;;;;;;10528024;28;20517;-76
2022/09/15 11:50:45;;;;;;;1.77;1.10;;;;;;;;;;10510238;28;20036;-76
2022/09/15 11:55:53;;;;;;;1.10;0.90;;;;;;;;;;10517904;28;20033;-79
2022/09/15 12:00:57;;;;;;;1.85;0.90;;;;;;;;;;10513247;28;20117;-78
2022/09/15 12:06:03;;;;;;;2.28;1.02;;;;;;;;;;10528491;28;20048;-78
2022/09/15 12:11:10;;;;;;;1.55;1.10;;;;;;;;;;10529059;28;20044;-79
2022/09/15 12:16:13;;;;;;;1.00;0.70;;;;;;;;;;10527926;28;20395;-79
2022/09/15 12:21:19;;;;;;;1.00;0.90;;;;;;;;;;10490367;28;20427;-78
2022/09/15 12:26:27;;;;;;;1.25;0.80;;;;;;;;;;10533378;28;20150;-78
2022/09/15 12:31:34;;;;;;;1.70;1.00;;;;;;;;;;10533147;28;20131;-79
2022/09/15 12:36:39;;;;;;;1.45;1.35;;;;;;;;;;10489775;28;20036;-79
2022/09/15 12:41:46;;;;;;;2.42;1.20;;;;;;;;;;10522354;28;20044;-78
2022/09/15 12:46:54;;;;;;;1.20;1.00;;;;;;;;;;10529250;28;20065;-79
2022/09/15 12:51:58;;;;;;;4.00;1.00;;;;;;;;;;10543035;28;20086;-79
2022/09/15 12:57:03;;;;;;;2.70;1.42;;;;;;;;;;10541682;28;20507;-79
2022/09/15 13:02:27;;;;;;;0.90;0.82;;;;;;;;;;10527811;28;20054;-80
2022/09/15 13:07:52;;;;;;;0.90;0.68;;;;;;;;;;10535849;28;20139;-79
2022/09/15 13:13:00;;;;;;;0.95;0.80;;;;;;;;;;10518481;28;20127;-79
2022/09/15 13:18:04;;;;;;;2.45;1.10;;;;;;;;;;10524393;28;20048;-80
2022/09/15 13:23:08;;;;;;;0.55;0.52;;;;;;;;;;10524894;28;20042;-78
2022/09/15 13:28:13;;;;;;;1.05;0.70;;;;;;;;;;10522098;28;20477;-80
2022/09/15 13:33:26;;;;;;;2.28;0.98;;;;;;;;;;10512716;28;20111;-80
2022/09/15 13:39:07;;;;;;;1.40;1.00;;;;;;;;;;10517296;28;20039;-80
2022/09/15 13:44:28;;;;;;;1.65;0.90;;;;;;;;;;10519209;28;20058;-79
2022/09/15 13:49:43;;;;;;;0.77;0.73;;;;;;;;;;10513009;28;20040;-79
2022/09/15 13:55:01;;;;;;;1.15;0.80;;;;;;;;;;10512687;28;20058;-78
2022/09/15 14:00:06;;;;;;;2.15;0.82;;;;;;;;;;10531097;28;20071;-79
2022/09/15 14:05:20;;;;;;;2.03;0.80;;;;;;;;;;10526876;28;20467;-79
2022/09/15 14:10:24;;;;;;;1.05;0.70;;;;;;;;;;10503888;28;20134;-79
2022/09/15 14:15:30;;;;;;;2.80;0.57;;;;;;;;;;10493938;28;20032;-79
2022/09/15 14:20:34;;;;;;;0.82;0.70;;;;;;;;;;10530130;28;20040;-79
2022/09/15 14:25:36;;;;;;;1.63;0.90;;;;;;;;;;10516354;28;20494;-78
2022/09/15 14:30:39;;;;;;;1.08;0.80;;;;;;;;;;10525308;28;20455;-79
2022/09/15 14:35:44;;;;;;;2.22;0.80;;;;;;;;;;10525274;28;20041;-78
2022/09/15 14:40:50;;;;;;;1.38;0.93;;;;;;;;;;10495679;28;20430;-78
2022/09/15 14:45:53;;;;;;;3.67;1.55;;;;;;;;;;10501938;28;20139;-80
2022/09/15 14:51:13;;;;;;;2.92;1.08;;;;;;;;;;10514642;28;20044;-79
2022/09/15 14:56:18;;;;;;;1.38;0.60;;;;;;;;;;10507927;28;20048;-79
2022/09/15 15:01:23;;;;;;;2.38;0.75;;;;;;;;;;10510574;28;20040;-80
2022/09/15 15:06:29;;;;;;;0.52;0.52;;;;;;;;;;10508726;28;20044;-79
2022/09/15 15:11:33;;;;;;;0.60;0.47;;;;;;;;;;10502095;28;20048;-78
2022/09/15 15:16:37;;;;;;;1.33;0.73;;;;;;;;;;10501240;28;20033;-78
2022/09/15 15:21:42;;;;;;;0.40;0.40;;;;;;;;;;10524455;28;20049;-79
2022/09/15 15:26:46;;;;;;;2.45;1.00;;;;;;;;;;10507488;28;20164;-78
2022/09/15 15:31:49;;;;;;;1.55;0.52;;;;;;;;;;10500373;28;20036;-79
2022/09/15 15:37:01;;;;;;;1.25;0.73;;;;;;;;;;10510418;28;20044;-80
2022/09/15 15:42:07;;;;;;;1.90;1.10;;;;;;;;;;10511536;28;20044;-81
2022/09/15 15:47:23;;;;;;;2.40;1.10;;;;;;;;;;10519755;28;20044;-79
2022/09/15 15:52:28;;;;;;;3.10;0.90;;;;;;;;;;10522370;28;20032;-78
2022/09/15 15:57:34;;;;;;;4.43;1.33;;;;;;;;;;10492593;28;20332;-79
2022/09/15 16:02:37;;;;;;;1.77;1.00;;;;;;;;;;10512879;28;20046;-78
2022/09/15 16:07:42;;;;;;;1.80;1.03;;;;;;;;;;10517873;28;20038;-79
2022/09/15 16:12:48;;;;;;;3.75;1.20;;;;;;;;;;10521364;28;20036;-80
2022/09/15 16:17:51;;;;;;;2.05;1.40;;;;;;;;;;10518607;28;20066;-79
2022/09/15 16:22:55;;;;;;;2.38;1.30;;;;;;;;;;10530396;28;20067;-80
2022/09/15 16:27:58;;;;;;;1.60;1.30;;;;;;;;;;10530571;28;20460;-78
2022/09/15 16:33:01;;;;;;;3.10;1.35;;;;;;;;;;10536697;28;20044;-79
2022/09/15 16:38:05;;;;;;;2.72;1.70;;;;;;;;;;10536705;28;20048;-79
2022/09/15 16:43:10;;;;;;;2.35;1.65;;;;;;;;;;10526601;28;20055;-79
2022/09/15 16:48:13;;;;;;;3.63;1.80;;;;;;;;;;10531081;28;20070;-79
2022/09/15 16:53:18;;;;;;;3.38;1.90;;;;;;;;;;10495936;28;20521;-79
2022/09/15 16:58:22;;;;;;;2.40;1.85;;;;;;;;;;10502740;28;20036;-79
2022/09/15 17:03:26;;;;;;;4.10;2.20;;;;;;;;;;10525814;28;20043;-80
2022/09/15 17:08:29;;;;;;;;;;;;;;;;;;10532634;28;20082;-79
2022/09/15 17:13:35;;;;;;;3.60;2.10;;;;;;;;;;10511116;28;19924;-81
2022/09/15 17:18:38;;;;;;;4.95;1.98;;;;;;;;;;10530956;28;20058;-79
2022/09/15 17:23:43;;;;;;;4.33;2.13;;;;;;;;;;10524119;28;20339;-79
2022/09/15 17:28:49;;;;;;;5.93;2.20;;;;;;;;;;10515936;28;20176;-81
2022/09/15 17:33:52;;;;;;;5.32;2.53;;;;;;;;;;10515450;28;20037;-79
2022/09/15 17:39:03;;;;;;;4.47;2.50;;;;;;;;;;10514442;28;20117;-77
2022/09/15 17:44:10;;;;;;;5.03;2.60;;;;;;;;;;10503807;28;20129;-77
2022/09/15 17:49:12;;;;;;;5.22;2.65;;;;;;;;;;10546604;28;20132;-78
2022/09/15 17:54:16;;;;;;;7.72;3.10;;;;;;;;;;10548873;28;20028;-79
2022/09/15 17:59:20;;;;;;;13.40;3.20;;;;;;;;;;10561862;28;20044;-80
2022/09/15 18:04:23;;;;;;;4.82;2.80;;;;;;;;;;10529741;28;20682;-79
2022/09/15 18:09:26;;;;;;;5.87;2.77;;;;;;;;;;10522155;28;20046;-80
2022/09/15 18:14:30;;;;;;;3.83;2.70;;;;;;;;;;10494090;28;20039;-80
2022/09/15 18:19:34;;;;;;;3.22;2.08;;;;;;;;;;10519642;28;20519;-79
2022/09/15 18:24:36;;;;;;;;;;;;;;;;;;10520693;28;20102;-79
2022/09/15 18:29:40;;;;;;;5.97;3.00;;;;;;;;;;10525296;28;20398;-81
2022/09/15 18:34:44;;;;;;;8.88;2.72;;;;;;;;;;10511585;28;20036;-79
2022/09/15 18:39:47;;;;;;;6.93;3.00;;;;;;;;;;10530855;28;20043;-82
2022/09/15 18:44:51;;;;;;;4.83;2.47;;;;;;;;;;10533725;28;20040;-78
2022/09/15 18:49:54;;;;;;;5.65;2.53;;;;;;;;;;10519452;28;20038;-78
2022/09/15 18:54:58;;;;;;;6.78;2.80;;;;;;;;;;10515295;28;20036;-79
2022/09/15 19:00:04;;;;;;;6.47;3.00;;;;;;;;;;10523441;28;20044;-78
2022/09/15 19:05:10;;;;;;;5.28;2.90;;;;;;;;;;10526974;28;20055;-76
2022/09/15 19:10:13;;;;;;;4.25;1.80;;;;;;;;;;10528570;28;20126;-79
2022/09/15 19:15:17;;;;;;;6.13;2.88;;;;;;;;;;10531217;28;20029;-79
2022/09/15 19:20:29;;;;;;;3.45;1.70;;;;;;;;;;10533185;28;20040;-77
2022/09/15 19:25:34;;;;;;;5.73;2.80;;;;;;;;;;10526820;28;20276;-79
2022/09/15 19:30:38;;;;;;;6.57;2.45;;;;;;;;;;10523628;28;20489;-80
2022/09/15 19:35:41;;;;;;;3.85;1.67;;;;;;;;;;10521971;28;20032;-80
2022/09/15 19:40:44;;;;;;;4.00;2.53;;;;;;;;;;10504580;28;20123;-80
2022/09/15 19:45:48;;;;;;;4.57;2.70;;;;;;;;;;10521253;28;20032;-79
2022/09/15 19:50:51;;;;;;;7.15;2.67;;;;;;;;;;10523243;28;20044;-78
2022/09/15 19:55:53;;;;;;;7.65;3.03;;;;;;;;;;10511486;28;20082;-75
2022/09/15 20:00:58;;;;;;;5.80;2.80;;;;;;;;;;10513326;28;20036;-77
2022/09/15 20:06:00;;;;;;;7.13;3.08;;;;;;;;;;10534068;28;20043;-75
2022/09/15 20:11:04;;;;;;;5.33;3.07;;;;;;;;;;10529186;28;20075;-76
2022/09/15 20:16:12;;;;;;;4.07;2.50;;;;;;;;;;10511855;28;20275;-76
2022/09/15 20:21:16;;;;;;;6.70;3.10;;;;;;;;;;10531612;28;20063;-76
2022/09/15 20:26:35;;;;;;;5.88;3.08;;;;;;;;;;10529293;28;20512;-75
2022/09/15 20:31:39;;;;;;;6.00;3.10;;;;;;;;;;10533212;28;20036;-76
2022/09/15 20:36:44;;;;;;;4.85;2.60;;;;;;;;;;10534093;28;20123;-79
2022/09/15 20:41:46;;;;;;;7.45;3.10;;;;;;;;;;10530657;28;20495;-76
2022/09/15 20:46:50;;;;;;;4.82;2.78;;;;;;;;;;10542261;28;20485;-78
2022/09/15 20:51:53;;;;;;;6.22;2.92;;;;;;;;;;10533803;28;20032;-74
2022/09/15 20:56:56;;;;;;;10.20;3.75;;;;;;;;;;10543195;28;20050;-74
2022/09/15 21:02:00;;;;;;;8.00;3.35;;;;;;;;;;10554112;28;20044;-74
2022/09/15 21:07:03;;;;;;;6.38;3.10;;;;;;;;;;10520554;28;20040;-74
2022/09/15 21:12:06;;;;;;;6.55;3.35;;;;;;;;;;10521200;28;20043;-75
2022/09/15 21:17:10;;;;;;;6.22;3.03;;;;;;;;;;10530511;28;20126;-75
2022/09/15 21:22:13;;;;;;;6.28;3.00;;;;;;;;;;10522654;28;20055;-75
2022/09/15 21:27:29;;;;;;;6.13;3.35;;;;;;;;;;10531720;28;20044;-75
2022/09/15 21:32:33;;;;;;;7.00;3.75;;;;;;;;;;10519451;28;20040;-75
2022/09/15 21:37:36;;;;;;;7.70;3.78;;;;;;;;;;10528225;28;20386;-74
2022/09/15 21:42:39;;;;;;;7.57;3.17;;;;;;;;;;10523040;28;20039;-74
2022/09/15 21:47:44;;;;;;;6.18;3.05;;;;;;;;;;10521380;28;20118;-74
2022/09/15 21:52:47;;;;;;;5.90;3.10;;;;;;;;;;10540068;28;20042;-77
2022/09/15 21:57:49;;;;;;;6.10;2.97;;;;;;;;;;10516954;28;20247;-75
2022/09/15 22:02:53;;;;;;;7.65;3.33;;;;;;;;;;10523019;28;20036;-75
2022/09/15 22:07:56;;;;;;;7.25;3.67;;;;;;;;;;10534461;28;20127;-74
2022/09/15 22:13:06;;;;;;;9.32;3.90;;;;;;;;;;10529209;28;20191;-76
2022/09/15 22:18:10;;;;;;;6.93;3.60;;;;;;;;;;10525899;28;20075;-76
2022/09/15 22:23:13;;;;;;;8.20;3.75;;;;;;;;;;10523420;28;20135;-75
2022/09/15 22:28:15;;;;;;;9.18;3.60;;;;;;;;;;10520312;28;20051;-75
2022/09/15 22:33:20;;;;;;;6.72;3.20;;;;;;;;;;10523699;28;20512;-76
2022/09/15 22:38:23;;;;;;;6.20;2.08;;;;;;;;;;10515315;28;20043;-75
2022/09/15 22:43:26;;;;;;;3.40;1.77;;;;;;;;;;10516414;28;20039;-75
2022/09/15 22:48:33;;;;;;;6.57;3.38;;;;;;;;;;10538019;28;20063;-76
2022/09/15 22:53:42;;;;;;;5.22;3.25;;;;;;;;;;10512342;28;20071;-75
2022/09/15 22:58:45;;;;;;;7.55;3.10;;;;;;;;;;10538880;28;20098;-73
2022/09/15 23:03:51;;;;;;;8.57;3.50;;;;;;;;;;10528777;28;20040;-76
2022/09/15 23:08:55;;;;;;;8.38;3.17;;;;;;;;;;10538615;28;20040;-74
2022/09/15 23:13:58;;;;;;;;;;;;;;;;;;10518730;28;20040;-74
2022/09/15 23:19:02;;;;;;;9.13;3.88;;;;;;;;;;10510513;28;19935;-76
2022/09/15 23:24:05;;;;;;;8.00;3.38;;;;;;;;;;10521766;28;20342;-76
2022/09/15 23:29:08;;;;;;;6.70;2.90;;;;;;;;;;10512501;28;20392;-77
2022/09/15 23:34:13;;;;;;;7.88;3.53;;;;;;;;;;10531712;28;20372;-74
2022/09/15 23:39:16;;;;;;;6.63;3.38;;;;;;;;;;10533642;28;20044;-73
2022/09/15 23:44:19;;;;;;;8.17;3.57;;;;;;;;;;10521082;28;20071;-75
2022/09/15 23:49:23;;;;;;;6.90;3.30;;;;;;;;;;10535538;28;20060;-74
2022/09/15 23:54:26;;;;;;;7.53;3.60;;;;;;;;;;10532084;28;20037;-75
2022/09/15 23:59:29;;;;;;;7.05;3.63;;;;;;;;;;10539760;28;20309;-74
